sensor_id;sensor_type;location;lat;lon;timestamp;temperature;humidity
54429;DHT22;40337;52.978;6.310;2023-11-19T00:00:10;13.00;99.90
54429;DHT22;40337;52.978;6.310;2023-11-19T00:02:40;12.70;99.90
54429;DHT22;40337;52.978;6.310;2023-11-19T00:05:06;12.90;99.90
54429;DHT22;40337;52.978;6.310;2023-11-19T00:07:37;12.90;99.90
54429;DHT22;40337;52.978;6.310;2023-11-19T00:10:10;13.00;99.90
54429;DHT22;40337;52.978;6.310;2023-11-19T00:12:38;13.20;99.90
54429;DHT22;40337;52.978;6.310;2023-11-19T00:15:04;13.00;99.90
54429;DHT22;40337;52.978;6.310;2023-11-19T00:17:30;13.00;99.90
54429;DHT22;40337;52.978;6.310;2023-11-19T00:19:57;13.40;99.90
54429;DHT22;40337;52.978;6.310;2023-11-19T00:22:22;13.00;99.90
54429;DHT22;40337;52.978;6.310;2023-11-19T00:24:48;13.20;99.90
54429;DHT22;40337;52.978;6.310;2023-11-19T00:27:14;13.40;99.90
54429;DHT22;40337;52.978;6.310;2023-11-19T00:29:40;13.10;99.90
54429;DHT22;40337;52.978;6.310;2023-11-19T00:32:05;13.00;99.90
54429;DHT22;40337;52.978;6.310;2023-11-19T00:34:34;13.00;99.90
54429;DHT22;40337;52.978;6.310;2023-11-19T00:37:00;13.20;99.90
54429;DHT22;40337;52.978;6.310;2023-11-19T00:39:25;13.30;99.90
54429;DHT22;40337;52.978;6.310;2023-11-19T00:41:51;13.10;99.90
54429;DHT22;40337;52.978;6.310;2023-11-19T00:44:16;13.10;99.90
54429;DHT22;40337;52.978;6.310;2023-11-19T00:46:42;13.20;99.90
54429;DHT22;40337;52.978;6.310;2023-11-19T00:49:07;13.10;99.90
54429;DHT22;40337;52.978;6.310;2023-11-19T00:51:33;13.10;99.90
54429;DHT22;40337;52.978;6.310;2023-11-19T00:53:58;13.40;99.90
54429;DHT22;40337;52.978;6.310;2023-11-19T00:56:24;13.20;99.90
54429;DHT22;40337;52.978;6.310;2023-11-19T00:58:50;13.30;99.90
54429;DHT22;40337;52.978;6.310;2023-11-19T01:01:15;13.20;99.90
54429;DHT22;40337;52.978;6.310;2023-11-19T01:03:41;13.30;99.90
54429;DHT22;40337;52.978;6.310;2023-11-19T01:06:07;13.20;99.90
54429;DHT22;40337;52.978;6.310;2023-11-19T01:08:33;13.10;99.90
54429;DHT22;40337;52.978;6.310;2023-11-19T01:11:01;13.30;99.90
54429;DHT22;40337;52.978;6.310;2023-11-19T01:13:27;13.10;99.90
54429;DHT22;40337;52.978;6.310;2023-11-19T01:15:53;13.30;99.90
54429;DHT22;40337;52.978;6.310;2023-11-19T01:18:19;13.20;99.90
54429;DHT22;40337;52.978;6.310;2023-11-19T01:20:44;13.10;99.90
54429;DHT22;40337;52.978;6.310;2023-11-19T01:23:10;13.20;99.90
54429;DHT22;40337;52.978;6.310;2023-11-19T01:25:35;13.20;99.90
54429;DHT22;40337;52.978;6.310;2023-11-19T01:28:03;13.10;99.90
54429;DHT22;40337;52.978;6.310;2023-11-19T01:30:30;13.20;99.90
54429;DHT22;40337;52.978;6.310;2023-11-19T01:32:56;13.10;99.90
54429;DHT22;40337;52.978;6.310;2023-11-19T01:35:21;13.20;99.90
54429;DHT22;40337;52.978;6.310;2023-11-19T01:37:48;13.10;99.90
54429;DHT22;40337;52.978;6.310;2023-11-19T01:40:14;13.00;99.90
54429;DHT22;40337;52.978;6.310;2023-11-19T01:42:41;13.10;99.90
54429;DHT22;40337;52.978;6.310;2023-11-19T01:45:07;13.10;99.90
54429;DHT22;40337;52.978;6.310;2023-11-19T01:47:34;12.90;99.90
54429;DHT22;40337;52.978;6.310;2023-11-19T01:50:01;12.90;99.90
54429;DHT22;40337;52.978;6.310;2023-11-19T01:52:27;13.10;99.90
54429;DHT22;40337;52.978;6.310;2023-11-19T01:54:53;13.10;99.90
54429;DHT22;40337;52.978;6.310;2023-11-19T01:57:21;13.00;99.90
54429;DHT22;40337;52.978;6.310;2023-11-19T01:59:51;13.20;99.90
54429;DHT22;40337;52.978;6.310;2023-11-19T02:02:18;13.10;99.90
54429;DHT22;40337;52.978;6.310;2023-11-19T02:04:47;12.90;99.90
54429;DHT22;40337;52.978;6.310;2023-11-19T02:07:14;12.90;99.90
54429;DHT22;40337;52.978;6.310;2023-11-19T02:09:42;12.90;99.90
54429;DHT22;40337;52.978;6.310;2023-11-19T02:12:09;13.00;99.90
54429;DHT22;40337;52.978;6.310;2023-11-19T02:14:37;12.90;99.90
54429;DHT22;40337;52.978;6.310;2023-11-19T02:17:03;12.90;99.90
54429;DHT22;40337;52.978;6.310;2023-11-19T02:19:29;12.90;99.90
54429;DHT22;40337;52.978;6.310;2023-11-19T02:21:55;12.80;99.90
54429;DHT22;40337;52.978;6.310;2023-11-19T02:24:22;12.90;99.90
54429;DHT22;40337;52.978;6.310;2023-11-19T02:27:16;12.80;99.90
54429;DHT22;40337;52.978;6.310;2023-11-19T02:29:44;12.90;99.90
54429;DHT22;40337;52.978;6.310;2023-11-19T02:32:10;12.80;99.90
54429;DHT22;40337;52.978;6.310;2023-11-19T02:34:38;12.70;99.90
54429;DHT22;40337;52.978;6.310;2023-11-19T02:37:04;12.80;99.90
54429;DHT22;40337;52.978;6.310;2023-11-19T02:39:30;12.80;99.90
54429;DHT22;40337;52.978;6.310;2023-11-19T02:41:56;12.80;99.90
54429;DHT22;40337;52.978;6.310;2023-11-19T02:44:21;12.90;99.90
54429;DHT22;40337;52.978;6.310;2023-11-19T02:46:47;12.80;99.90
54429;DHT22;40337;52.978;6.310;2023-11-19T02:49:14;12.90;99.90
54429;DHT22;40337;52.978;6.310;2023-11-19T02:51:40;12.80;99.90
54429;DHT22;40337;52.978;6.310;2023-11-19T02:54:06;12.80;99.90
54429;DHT22;40337;52.978;6.310;2023-11-19T02:56:31;12.70;99.90
54429;DHT22;40337;52.978;6.310;2023-11-19T02:59:01;12.60;99.90
54429;DHT22;40337;52.978;6.310;2023-11-19T03:01:40;12.70;99.90
54429;DHT22;40337;52.978;6.310;2023-11-19T03:04:09;12.70;99.90
54429;DHT22;40337;52.978;6.310;2023-11-19T03:06:37;12.70;99.90
54429;DHT22;40337;52.978;6.310;2023-11-19T03:09:03;12.70;99.90
54429;DHT22;40337;52.978;6.310;2023-11-19T03:11:33;12.60;99.90
54429;DHT22;40337;52.978;6.310;2023-11-19T03:13:59;12.60;99.90
54429;DHT22;40337;52.978;6.310;2023-11-19T03:16:24;12.60;99.90
54429;DHT22;40337;52.978;6.310;2023-11-19T03:18:50;12.70;99.90
54429;DHT22;40337;52.978;6.310;2023-11-19T03:21:16;12.70;99.90
54429;DHT22;40337;52.978;6.310;2023-11-19T03:23:42;12.60;99.90
54429;DHT22;40337;52.978;6.310;2023-11-19T03:26:10;12.60;99.90
54429;DHT22;40337;52.978;6.310;2023-11-19T03:28:36;12.60;99.90
54429;DHT22;40337;52.978;6.310;2023-11-19T03:31:05;12.60;99.90
54429;DHT22;40337;52.978;6.310;2023-11-19T03:33:33;12.50;99.90
54429;DHT22;40337;52.978;6.310;2023-11-19T03:35:59;12.50;99.90
54429;DHT22;40337;52.978;6.310;2023-11-19T03:38:24;12.60;99.90
54429;DHT22;40337;52.978;6.310;2023-11-19T03:40:50;12.50;99.90
54429;DHT22;40337;52.978;6.310;2023-11-19T03:43:16;12.50;99.90
54429;DHT22;40337;52.978;6.310;2023-11-19T03:45:41;12.50;99.90
54429;DHT22;40337;52.978;6.310;2023-11-19T03:48:07;12.50;99.90
54429;DHT22;40337;52.978;6.310;2023-11-19T03:50:32;12.50;99.90
54429;DHT22;40337;52.978;6.310;2023-11-19T03:52:59;12.50;99.90
54429;DHT22;40337;52.978;6.310;2023-11-19T03:55:24;12.40;99.90
54429;DHT22;40337;52.978;6.310;2023-11-19T03:57:50;12.40;99.90
54429;DHT22;40337;52.978;6.310;2023-11-19T04:00:15;12.40;99.90
54429;DHT22;40337;52.978;6.310;2023-11-19T04:02:41;12.40;99.90
54429;DHT22;40337;52.978;6.310;2023-11-19T04:05:07;12.40;99.90
54429;DHT22;40337;52.978;6.310;2023-11-19T04:07:33;12.30;99.90
54429;DHT22;40337;52.978;6.310;2023-11-19T04:09:59;12.30;99.90
54429;DHT22;40337;52.978;6.310;2023-11-19T04:12:25;12.30;99.90
54429;DHT22;40337;52.978;6.310;2023-11-19T04:14:51;12.30;99.90
54429;DHT22;40337;52.978;6.310;2023-11-19T04:17:16;12.30;99.90
54429;DHT22;40337;52.978;6.310;2023-11-19T04:19:42;12.30;99.90
54429;DHT22;40337;52.978;6.310;2023-11-19T04:22:08;12.20;99.90
54429;DHT22;40337;52.978;6.310;2023-11-19T04:24:35;12.20;99.90
54429;DHT22;40337;52.978;6.310;2023-11-19T04:27:01;12.30;99.90
54429;DHT22;40337;52.978;6.310;2023-11-19T04:29:27;12.20;99.90
54429;DHT22;40337;52.978;6.310;2023-11-19T04:31:52;12.20;99.90
54429;DHT22;40337;52.978;6.310;2023-11-19T04:34:19;12.10;99.90
54429;DHT22;40337;52.978;6.310;2023-11-19T04:36:44;12.20;99.90
54429;DHT22;40337;52.978;6.310;2023-11-19T04:39:10;12.20;99.90
54429;DHT22;40337;52.978;6.310;2023-11-19T04:41:48;12.10;99.90
54429;DHT22;40337;52.978;6.310;2023-11-19T04:44:20;12.10;99.90
54429;DHT22;40337;52.978;6.310;2023-11-19T04:46:46;12.30;99.90
54429;DHT22;40337;52.978;6.310;2023-11-19T04:49:13;12.00;99.90
54429;DHT22;40337;52.978;6.310;2023-11-19T04:51:40;12.30;99.90
54429;DHT22;40337;52.978;6.310;2023-11-19T04:54:07;12.10;99.90
54429;DHT22;40337;52.978;6.310;2023-11-19T04:56:34;12.20;99.90
54429;DHT22;40337;52.978;6.310;2023-11-19T04:59:01;12.00;99.90
54429;DHT22;40337;52.978;6.310;2023-11-19T05:01:27;12.10;99.90
54429;DHT22;40337;52.978;6.310;2023-11-19T05:03:53;12.00;99.90
54429;DHT22;40337;52.978;6.310;2023-11-19T05:06:19;12.00;99.90
54429;DHT22;40337;52.978;6.310;2023-11-19T05:08:45;12.10;99.90
54429;DHT22;40337;52.978;6.310;2023-11-19T05:11:12;12.00;99.90
54429;DHT22;40337;52.978;6.310;2023-11-19T05:13:39;12.10;99.90
54429;DHT22;40337;52.978;6.310;2023-11-19T05:16:05;12.60;99.90
54429;DHT22;40337;52.978;6.310;2023-11-19T05:18:30;12.10;99.90
54429;DHT22;40337;52.978;6.310;2023-11-19T05:20:56;12.00;99.90
54429;DHT22;40337;52.978;6.310;2023-11-19T05:23:21;12.00;99.90
54429;DHT22;40337;52.978;6.310;2023-11-19T05:25:47;12.00;99.90
54429;DHT22;40337;52.978;6.310;2023-11-19T05:28:13;12.00;99.90
54429;DHT22;40337;52.978;6.310;2023-11-19T05:30:39;12.00;99.90
54429;DHT22;40337;52.978;6.310;2023-11-19T05:33:05;12.00;99.90
54429;DHT22;40337;52.978;6.310;2023-11-19T05:35:32;12.00;99.90
54429;DHT22;40337;52.978;6.310;2023-11-19T05:37:57;12.00;99.90
54429;DHT22;40337;52.978;6.310;2023-11-19T05:40:23;12.00;99.90
54429;DHT22;40337;52.978;6.310;2023-11-19T05:42:49;12.00;99.90
54429;DHT22;40337;52.978;6.310;2023-11-19T05:45:14;12.00;99.90
54429;DHT22;40337;52.978;6.310;2023-11-19T05:47:40;11.90;99.90
54429;DHT22;40337;52.978;6.310;2023-11-19T05:50:06;11.90;99.90
54429;DHT22;40337;52.978;6.310;2023-11-19T05:52:32;11.90;99.90
54429;DHT22;40337;52.978;6.310;2023-11-19T05:55:01;11.90;99.90
54429;DHT22;40337;52.978;6.310;2023-11-19T05:57:35;11.90;99.90
54429;DHT22;40337;52.978;6.310;2023-11-19T06:00:01;11.90;99.90
54429;DHT22;40337;52.978;6.310;2023-11-19T06:02:26;11.90;99.90
54429;DHT22;40337;52.978;6.310;2023-11-19T06:04:53;11.80;99.90
54429;DHT22;40337;52.978;6.310;2023-11-19T06:07:18;11.80;99.90
54429;DHT22;40337;52.978;6.310;2023-11-19T06:09:45;11.80;99.90
54429;DHT22;40337;52.978;6.310;2023-11-19T06:12:10;11.80;99.90
54429;DHT22;40337;52.978;6.310;2023-11-19T06:14:36;11.80;99.90
54429;DHT22;40337;52.978;6.310;2023-11-19T06:17:02;11.80;99.90
54429;DHT22;40337;52.978;6.310;2023-11-19T06:19:31;11.80;99.90
54429;DHT22;40337;52.978;6.310;2023-11-19T06:21:57;11.70;99.90
54429;DHT22;40337;52.978;6.310;2023-11-19T06:24:22;11.70;99.90
54429;DHT22;40337;52.978;6.310;2023-11-19T06:26:48;11.70;99.90
54429;DHT22;40337;52.978;6.310;2023-11-19T06:29:13;11.70;99.90
54429;DHT22;40337;52.978;6.310;2023-11-19T06:31:43;11.80;99.90
54429;DHT22;40337;52.978;6.310;2023-11-19T06:34:09;11.70;99.90
54429;DHT22;40337;52.978;6.310;2023-11-19T06:36:35;12.00;99.90
54429;DHT22;40337;52.978;6.310;2023-11-19T06:39:00;11.80;99.90
54429;DHT22;40337;52.978;6.310;2023-11-19T06:41:27;11.70;99.90
54429;DHT22;40337;52.978;6.310;2023-11-19T06:43:54;11.80;99.90
54429;DHT22;40337;52.978;6.310;2023-11-19T06:46:20;11.90;99.90
54429;DHT22;40337;52.978;6.310;2023-11-19T06:48:46;11.90;99.90
54429;DHT22;40337;52.978;6.310;2023-11-19T06:51:12;11.80;99.90
54429;DHT22;40337;52.978;6.310;2023-11-19T06:53:37;11.80;99.90
54429;DHT22;40337;52.978;6.310;2023-11-19T06:56:06;11.80;99.90
54429;DHT22;40337;52.978;6.310;2023-11-19T06:58:36;11.80;99.90
54429;DHT22;40337;52.978;6.310;2023-11-19T07:01:02;11.80;99.90
54429;DHT22;40337;52.978;6.310;2023-11-19T07:03:27;11.80;99.90
54429;DHT22;40337;52.978;6.310;2023-11-19T07:05:53;11.80;99.90
54429;DHT22;40337;52.978;6.310;2023-11-19T07:08:21;11.80;99.90
54429;DHT22;40337;52.978;6.310;2023-11-19T07:10:47;11.70;99.90
54429;DHT22;40337;52.978;6.310;2023-11-19T07:13:13;11.80;99.90
54429;DHT22;40337;52.978;6.310;2023-11-19T07:15:38;11.70;99.90
54429;DHT22;40337;52.978;6.310;2023-11-19T07:18:04;11.70;99.90
54429;DHT22;40337;52.978;6.310;2023-11-19T07:20:29;11.70;99.90
54429;DHT22;40337;52.978;6.310;2023-11-19T07:22:56;11.70;99.90
54429;DHT22;40337;52.978;6.310;2023-11-19T07:25:22;11.70;99.90
54429;DHT22;40337;52.978;6.310;2023-11-19T07:27:48;11.70;99.90
54429;DHT22;40337;52.978;6.310;2023-11-19T07:30:14;11.90;99.90
54429;DHT22;40337;52.978;6.310;2023-11-19T07:32:40;11.70;99.90
54429;DHT22;40337;52.978;6.310;2023-11-19T07:35:06;11.70;99.90
54429;DHT22;40337;52.978;6.310;2023-11-19T07:37:32;11.70;99.90
54429;DHT22;40337;52.978;6.310;2023-11-19T07:39:57;11.60;99.90
54429;DHT22;40337;52.978;6.310;2023-11-19T07:42:23;11.80;99.90
54429;DHT22;40337;52.978;6.310;2023-11-19T07:44:49;11.70;99.90
54429;DHT22;40337;52.978;6.310;2023-11-19T07:47:14;11.70;99.90
54429;DHT22;40337;52.978;6.310;2023-11-19T07:49:40;11.70;99.90
54429;DHT22;40337;52.978;6.310;2023-11-19T07:52:05;11.70;99.90
54429;DHT22;40337;52.978;6.310;2023-11-19T07:54:32;11.70;99.90
54429;DHT22;40337;52.978;6.310;2023-11-19T07:56:58;12.60;99.90
54429;DHT22;40337;52.978;6.310;2023-11-19T07:59:23;11.70;99.90
54429;DHT22;40337;52.978;6.310;2023-11-19T08:01:49;11.70;99.90
54429;DHT22;40337;52.978;6.310;2023-11-19T08:04:14;11.70;99.90
54429;DHT22;40337;52.978;6.310;2023-11-19T08:06:40;11.70;99.90
54429;DHT22;40337;52.978;6.310;2023-11-19T08:09:06;11.80;99.90
54429;DHT22;40337;52.978;6.310;2023-11-19T08:11:32;11.80;99.90
54429;DHT22;40337;52.978;6.310;2023-11-19T08:13:58;11.80;99.90
54429;DHT22;40337;52.978;6.310;2023-11-19T08:16:24;11.80;99.90
54429;DHT22;40337;52.978;6.310;2023-11-19T08:18:50;11.80;99.90
54429;DHT22;40337;52.978;6.310;2023-11-19T08:21:15;11.80;99.90
54429;DHT22;40337;52.978;6.310;2023-11-19T08:23:41;11.80;99.90
54429;DHT22;40337;52.978;6.310;2023-11-19T08:26:06;11.80;99.90
54429;DHT22;40337;52.978;6.310;2023-11-19T08:28:32;11.80;99.90
54429;DHT22;40337;52.978;6.310;2023-11-19T08:30:59;11.80;99.90
54429;DHT22;40337;52.978;6.310;2023-11-19T08:33:26;11.80;99.90
54429;DHT22;40337;52.978;6.310;2023-11-19T08:35:51;11.80;99.90
54429;DHT22;40337;52.978;6.310;2023-11-19T08:38:17;11.80;99.90
54429;DHT22;40337;52.978;6.310;2023-11-19T08:40:42;11.80;99.90
54429;DHT22;40337;52.978;6.310;2023-11-19T08:43:08;11.80;99.90
54429;DHT22;40337;52.978;6.310;2023-11-19T08:45:33;11.80;99.90
54429;DHT22;40337;52.978;6.310;2023-11-19T08:47:59;11.80;99.90
54429;DHT22;40337;52.978;6.310;2023-11-19T08:50:25;11.80;99.90
54429;DHT22;40337;52.978;6.310;2023-11-19T08:52:50;11.80;99.90
54429;DHT22;40337;52.978;6.310;2023-11-19T08:55:16;11.80;99.90
54429;DHT22;40337;52.978;6.310;2023-11-19T08:57:42;11.80;99.90
54429;DHT22;40337;52.978;6.310;2023-11-19T09:00:08;11.80;99.90
54429;DHT22;40337;52.978;6.310;2023-11-19T09:02:36;11.90;99.90
54429;DHT22;40337;52.978;6.310;2023-11-19T09:05:03;11.90;99.90
54429;DHT22;40337;52.978;6.310;2023-11-19T09:07:28;11.90;99.90
54429;DHT22;40337;52.978;6.310;2023-11-19T09:09:54;12.00;99.90
54429;DHT22;40337;52.978;6.310;2023-11-19T09:12:20;12.00;99.90
54429;DHT22;40337;52.978;6.310;2023-11-19T09:14:46;12.00;99.90
54429;DHT22;40337;52.978;6.310;2023-11-19T09:17:11;12.10;99.90
54429;DHT22;40337;52.978;6.310;2023-11-19T09:19:37;12.10;99.90
54429;DHT22;40337;52.978;6.310;2023-11-19T09:22:03;12.10;99.90
54429;DHT22;40337;52.978;6.310;2023-11-19T09:24:29;12.10;99.90
54429;DHT22;40337;52.978;6.310;2023-11-19T09:26:54;12.10;99.90
54429;DHT22;40337;52.978;6.310;2023-11-19T09:29:21;12.20;99.90
54429;DHT22;40337;52.978;6.310;2023-11-19T09:31:47;12.20;99.90
54429;DHT22;40337;52.978;6.310;2023-11-19T09:34:12;12.10;99.90
54429;DHT22;40337;52.978;6.310;2023-11-19T09:36:38;12.10;99.90
54429;DHT22;40337;52.978;6.310;2023-11-19T09:39:04;12.20;99.90
54429;DHT22;40337;52.978;6.310;2023-11-19T09:41:33;12.20;99.90
54429;DHT22;40337;52.978;6.310;2023-11-19T09:44:00;12.20;99.90
54429;DHT22;40337;52.978;6.310;2023-11-19T09:46:26;12.20;99.90
54429;DHT22;40337;52.978;6.310;2023-11-19T09:48:56;12.20;99.90
54429;DHT22;40337;52.978;6.310;2023-11-19T09:51:23;12.20;99.90
54429;DHT22;40337;52.978;6.310;2023-11-19T09:53:49;12.20;99.90
54429;DHT22;40337;52.978;6.310;2023-11-19T09:56:15;12.20;99.90
54429;DHT22;40337;52.978;6.310;2023-11-19T09:58:42;12.10;99.90
54429;DHT22;40337;52.978;6.310;2023-11-19T10:01:08;12.20;99.90
54429;DHT22;40337;52.978;6.310;2023-11-19T10:03:36;12.20;99.90
54429;DHT22;40337;52.978;6.310;2023-11-19T10:06:09;12.20;99.90
54429;DHT22;40337;52.978;6.310;2023-11-19T10:08:39;12.20;99.90
54429;DHT22;40337;52.978;6.310;2023-11-19T10:11:08;12.20;99.90
54429;DHT22;40337;52.978;6.310;2023-11-19T10:13:36;12.20;99.90
54429;DHT22;40337;52.978;6.310;2023-11-19T10:16:09;12.20;99.90
54429;DHT22;40337;52.978;6.310;2023-11-19T10:18:37;12.10;99.90
54429;DHT22;40337;52.978;6.310;2023-11-19T10:21:04;12.00;99.90
54429;DHT22;40337;52.978;6.310;2023-11-19T10:23:31;12.00;99.90
54429;DHT22;40337;52.978;6.310;2023-11-19T10:26:04;12.00;99.90
54429;DHT22;40337;52.978;6.310;2023-11-19T10:28:39;12.00;99.90
54429;DHT22;40337;52.978;6.310;2023-11-19T10:31:06;12.00;99.90
54429;DHT22;40337;52.978;6.310;2023-11-19T10:33:32;11.90;99.90
54429;DHT22;40337;52.978;6.310;2023-11-19T10:35:58;11.90;99.90
54429;DHT22;40337;52.978;6.310;2023-11-19T10:38:25;11.90;99.90
54429;DHT22;40337;52.978;6.310;2023-11-19T10:40:52;11.90;99.90
54429;DHT22;40337;52.978;6.310;2023-11-19T10:43:21;11.90;99.90
54429;DHT22;40337;52.978;6.310;2023-11-19T10:45:48;11.90;99.90
54429;DHT22;40337;52.978;6.310;2023-11-19T10:48:14;11.90;99.90
54429;DHT22;40337;52.978;6.310;2023-11-19T10:50:41;11.90;99.90
54429;DHT22;40337;52.978;6.310;2023-11-19T10:53:09;11.90;99.90
54429;DHT22;40337;52.978;6.310;2023-11-19T10:55:36;11.90;99.90
54429;DHT22;40337;52.978;6.310;2023-11-19T10:58:10;11.90;99.90
54429;DHT22;40337;52.978;6.310;2023-11-19T11:03:15;12.10;99.90
54429;DHT22;40337;52.978;6.310;2023-11-19T11:05:42;12.10;99.90
54429;DHT22;40337;52.978;6.310;2023-11-19T11:08:09;12.20;99.90
54429;DHT22;40337;52.978;6.310;2023-11-19T11:10:39;12.20;99.90
54429;DHT22;40337;52.978;6.310;2023-11-19T11:13:07;12.20;99.90
54429;DHT22;40337;52.978;6.310;2023-11-19T11:15:34;12.30;99.90
54429;DHT22;40337;52.978;6.310;2023-11-19T11:18:01;12.30;99.90
54429;DHT22;40337;52.978;6.310;2023-11-19T11:20:29;12.30;99.90
54429;DHT22;40337;52.978;6.310;2023-11-19T11:23:19;12.30;99.90
54429;DHT22;40337;52.978;6.310;2023-11-19T11:26:09;12.40;99.90
54429;DHT22;40337;52.978;6.310;2023-11-19T11:29:02;12.40;99.90
54429;DHT22;40337;52.978;6.310;2023-11-19T11:37:15;12.50;99.90
54429;DHT22;40337;52.978;6.310;2023-11-19T11:39:43;12.50;99.90
54429;DHT22;40337;52.978;6.310;2023-11-19T11:44:58;12.50;99.90
54429;DHT22;40337;52.978;6.310;2023-11-19T11:47:25;12.50;99.90
54429;DHT22;40337;52.978;6.310;2023-11-19T11:49:52;12.50;99.90
54429;DHT22;40337;52.978;6.310;2023-11-19T11:52:17;12.50;99.90
54429;DHT22;40337;52.978;6.310;2023-11-19T11:54:44;12.60;99.90
54429;DHT22;40337;52.978;6.310;2023-11-19T11:57:11;12.60;99.90
54429;DHT22;40337;52.978;6.310;2023-11-19T11:59:47;12.70;99.90
54429;DHT22;40337;52.978;6.310;2023-11-19T12:02:16;12.70;99.90
54429;DHT22;40337;52.978;6.310;2023-11-19T12:04:42;12.60;99.90
54429;DHT22;40337;52.978;6.310;2023-11-19T12:09:53;12.60;99.90
54429;DHT22;40337;52.978;6.310;2023-11-19T12:12:27;12.60;99.90
54429;DHT22;40337;52.978;6.310;2023-11-19T12:20:03;12.60;99.90
54429;DHT22;40337;52.978;6.310;2023-11-19T12:22:30;12.60;99.90
54429;DHT22;40337;52.978;6.310;2023-11-19T12:24:56;12.60;99.90
54429;DHT22;40337;52.978;6.310;2023-11-19T12:27:22;12.60;99.90
54429;DHT22;40337;52.978;6.310;2023-11-19T12:29:48;12.60;99.90
54429;DHT22;40337;52.978;6.310;2023-11-19T12:32:14;12.60;99.90
54429;DHT22;40337;52.978;6.310;2023-11-19T12:34:40;12.60;99.90
54429;DHT22;40337;52.978;6.310;2023-11-19T12:37:06;12.70;99.90
54429;DHT22;40337;52.978;6.310;2023-11-19T12:39:32;12.60;99.90
54429;DHT22;40337;52.978;6.310;2023-11-19T12:41:58;12.70;99.90
54429;DHT22;40337;52.978;6.310;2023-11-19T12:44:26;12.80;99.90
54429;DHT22;40337;52.978;6.310;2023-11-19T12:47:06;12.80;99.90
54429;DHT22;40337;52.978;6.310;2023-11-19T12:49:32;12.80;99.90
54429;DHT22;40337;52.978;6.310;2023-11-19T12:51:59;12.80;99.90
54429;DHT22;40337;52.978;6.310;2023-11-19T12:54:35;12.80;99.90
54429;DHT22;40337;52.978;6.310;2023-11-19T12:57:01;12.70;99.90
54429;DHT22;40337;52.978;6.310;2023-11-19T12:59:27;12.70;99.90
54429;DHT22;40337;52.978;6.310;2023-11-19T13:01:59;12.60;99.90
54429;DHT22;40337;52.978;6.310;2023-11-19T13:04:29;12.60;99.90
54429;DHT22;40337;52.978;6.310;2023-11-19T13:07:01;12.60;99.90
54429;DHT22;40337;52.978;6.310;2023-11-19T13:09:29;12.50;99.90
54429;DHT22;40337;52.978;6.310;2023-11-19T13:11:55;12.50;99.90
54429;DHT22;40337;52.978;6.310;2023-11-19T13:14:22;12.50;99.90
54429;DHT22;40337;52.978;6.310;2023-11-19T13:16:48;12.50;99.90
54429;DHT22;40337;52.978;6.310;2023-11-19T13:19:15;12.60;99.90
54429;DHT22;40337;52.978;6.310;2023-11-19T13:21:45;12.60;99.90
54429;DHT22;40337;52.978;6.310;2023-11-19T13:24:13;12.60;99.90
54429;DHT22;40337;52.978;6.310;2023-11-19T13:26:38;12.60;99.90
54429;DHT22;40337;52.978;6.310;2023-11-19T13:29:04;12.60;99.90
54429;DHT22;40337;52.978;6.310;2023-11-19T13:31:29;12.50;99.90
54429;DHT22;40337;52.978;6.310;2023-11-19T13:33:55;12.50;99.90
54429;DHT22;40337;52.978;6.310;2023-11-19T13:36:22;12.40;99.90
54429;DHT22;40337;52.978;6.310;2023-11-19T13:38:47;12.40;99.90
54429;DHT22;40337;52.978;6.310;2023-11-19T13:41:13;12.40;99.90
54429;DHT22;40337;52.978;6.310;2023-11-19T13:43:39;12.40;99.90
54429;DHT22;40337;52.978;6.310;2023-11-19T13:46:05;12.40;99.90
54429;DHT22;40337;52.978;6.310;2023-11-19T13:48:31;12.40;99.90
54429;DHT22;40337;52.978;6.310;2023-11-19T13:50:56;12.40;99.90
54429;DHT22;40337;52.978;6.310;2023-11-19T13:53:22;12.40;99.90
54429;DHT22;40337;52.978;6.310;2023-11-19T13:55:51;12.40;99.90
54429;DHT22;40337;52.978;6.310;2023-11-19T13:58:16;12.40;99.90
54429;DHT22;40337;52.978;6.310;2023-11-19T14:00:42;12.40;99.90
54429;DHT22;40337;52.978;6.310;2023-11-19T14:03:09;12.40;99.90
54429;DHT22;40337;52.978;6.310;2023-11-19T14:05:35;12.40;99.90
54429;DHT22;40337;52.978;6.310;2023-11-19T14:08:01;12.40;99.90
54429;DHT22;40337;52.978;6.310;2023-11-19T14:10:27;12.30;99.90
54429;DHT22;40337;52.978;6.310;2023-11-19T14:12:52;12.40;99.90
54429;DHT22;40337;52.978;6.310;2023-11-19T14:15:18;12.30;99.90
54429;DHT22;40337;52.978;6.310;2023-11-19T14:17:43;12.30;99.90
54429;DHT22;40337;52.978;6.310;2023-11-19T14:20:10;12.30;99.90
54429;DHT22;40337;52.978;6.310;2023-11-19T14:22:42;12.20;99.90
54429;DHT22;40337;52.978;6.310;2023-11-19T14:25:09;12.20;99.90
54429;DHT22;40337;52.978;6.310;2023-11-19T14:27:39;12.20;99.90
54429;DHT22;40337;52.978;6.310;2023-11-19T14:30:06;12.10;99.90
54429;DHT22;40337;52.978;6.310;2023-11-19T14:32:32;12.10;99.90
54429;DHT22;40337;52.978;6.310;2023-11-19T14:34:58;12.10;99.90
54429;DHT22;40337;52.978;6.310;2023-11-19T14:37:24;12.10;99.90
54429;DHT22;40337;52.978;6.310;2023-11-19T14:39:49;12.10;99.90
54429;DHT22;40337;52.978;6.310;2023-11-19T14:42:18;12.10;99.90
54429;DHT22;40337;52.978;6.310;2023-11-19T14:44:43;12.00;99.90
54429;DHT22;40337;52.978;6.310;2023-11-19T14:47:09;12.10;99.90
54429;DHT22;40337;52.978;6.310;2023-11-19T14:49:35;12.00;99.90
54429;DHT22;40337;52.978;6.310;2023-11-19T14:52:05;12.00;99.90
54429;DHT22;40337;52.978;6.310;2023-11-19T14:54:31;12.00;99.90
54429;DHT22;40337;52.978;6.310;2023-11-19T14:56:57;12.00;99.90
54429;DHT22;40337;52.978;6.310;2023-11-19T14:59:24;12.00;99.90
54429;DHT22;40337;52.978;6.310;2023-11-19T15:01:50;12.00;99.90
54429;DHT22;40337;52.978;6.310;2023-11-19T15:04:15;11.90;99.90
54429;DHT22;40337;52.978;6.310;2023-11-19T15:06:41;11.90;99.90
54429;DHT22;40337;52.978;6.310;2023-11-19T15:09:07;11.90;99.90
54429;DHT22;40337;52.978;6.310;2023-11-19T15:11:33;11.80;99.90
54429;DHT22;40337;52.978;6.310;2023-11-19T15:13:58;11.70;99.90
54429;DHT22;40337;52.978;6.310;2023-11-19T15:16:25;11.60;99.90
54429;DHT22;40337;52.978;6.310;2023-11-19T15:18:56;11.60;99.90
54429;DHT22;40337;52.978;6.310;2023-11-19T15:21:25;11.50;99.90
54429;DHT22;40337;52.978;6.310;2023-11-19T15:23:51;11.50;99.90
54429;DHT22;40337;52.978;6.310;2023-11-19T15:26:17;11.50;99.90
54429;DHT22;40337;52.978;6.310;2023-11-19T15:28:43;11.50;99.90
54429;DHT22;40337;52.978;6.310;2023-11-19T15:31:09;11.50;99.90
54429;DHT22;40337;52.978;6.310;2023-11-19T15:33:35;11.50;99.90
54429;DHT22;40337;52.978;6.310;2023-11-19T15:36:01;11.50;99.90
54429;DHT22;40337;52.978;6.310;2023-11-19T15:38:28;11.50;99.90
54429;DHT22;40337;52.978;6.310;2023-11-19T15:40:54;11.40;99.90
54429;DHT22;40337;52.978;6.310;2023-11-19T15:43:20;11.40;99.90
54429;DHT22;40337;52.978;6.310;2023-11-19T15:45:45;11.40;99.90